sensor_id;sensor_type;location;lat;lon;timestamp;P1;durP1;ratioP1;P2;durP2;ratioP2
4106;SDS011;21906;50.812;7.132;2022-12-29T00:01:39;2.40;;;1.07;;
4106;SDS011;21906;50.812;7.132;2022-12-29T00:04:05;1.20;;;1.10;;
4106;SDS011;21906;50.812;7.132;2022-12-29T00:06:31;1.40;;;0.90;;
4106;SDS011;21906;50.812;7.132;2022-12-29T00:08:57;0.90;;;0.80;;
4106;SDS011;21906;50.812;7.132;2022-12-29T00:11:24;0.90;;;0.80;;
4106;SDS011;21906;50.812;7.132;2022-12-29T00:13:52;1.03;;;0.90;;
4106;SDS011;21906;50.812;7.132;2022-12-29T00:16:37;0.90;;;0.70;;
4106;SDS011;21906;50.812;7.132;2022-12-29T00:19:05;1.00;;;0.90;;
4106;SDS011;21906;50.812;7.132;2022-12-29T00:21:31;1.00;;;0.87;;
4106;SDS011;21906;50.812;7.132;2022-12-29T00:24:16;0.90;;;0.80;;
4106;SDS011;21906;50.812;7.132;2022-12-29T00:29:46;0.83;;;0.70;;
4106;SDS011;21906;50.812;7.132;2022-12-29T00:32:30;0.80;;;0.70;;
4106;SDS011;21906;50.812;7.132;2022-12-29T00:35:20;0.80;;;0.70;;
4106;SDS011;21906;50.812;7.132;2022-12-29T00:37:47;0.90;;;0.80;;
4106;SDS011;21906;50.812;7.132;2022-12-29T00:40:31;0.90;;;0.80;;
4106;SDS011;21906;50.812;7.132;2022-12-29T00:43:15;0.90;;;0.80;;
4106;SDS011;21906;50.812;7.132;2022-12-29T00:45:59;1.40;;;0.70;;
4106;SDS011;21906;50.812;7.132;2022-12-29T00:48:25;0.80;;;0.70;;
4106;SDS011;21906;50.812;7.132;2022-12-29T00:51:09;0.80;;;0.70;;
4106;SDS011;21906;50.812;7.132;2022-12-29T00:53:35;0.90;;;0.77;;
4106;SDS011;21906;50.812;7.132;2022-12-29T00:56:01;1.13;;;0.80;;
4106;SDS011;21906;50.812;7.132;2022-12-29T00:58:29;0.90;;;0.90;;
4106;SDS011;21906;50.812;7.132;2022-12-29T01:01:05;0.80;;;0.63;;
4106;SDS011;21906;50.812;7.132;2022-12-29T01:03:32;0.80;;;0.70;;
4106;SDS011;21906;50.812;7.132;2022-12-29T01:06:09;0.90;;;0.77;;
4106;SDS011;21906;50.812;7.132;2022-12-29T01:08:35;1.03;;;0.70;;
4106;SDS011;21906;50.812;7.132;2022-12-29T01:11:02;0.83;;;0.70;;
4106;SDS011;21906;50.812;7.132;2022-12-29T01:13:28;1.40;;;0.93;;
4106;SDS011;21906;50.812;7.132;2022-12-29T01:15:54;0.83;;;0.70;;
4106;SDS011;21906;50.812;7.132;2022-12-29T01:18:20;0.80;;;0.67;;
4106;SDS011;21906;50.812;7.132;2022-12-29T01:20:46;1.00;;;0.73;;
4106;SDS011;21906;50.812;7.132;2022-12-29T01:23:12;0.80;;;0.60;;
4106;SDS011;21906;50.812;7.132;2022-12-29T01:25:38;0.80;;;0.60;;
4106;SDS011;21906;50.812;7.132;2022-12-29T01:28:04;0.90;;;0.80;;
4106;SDS011;21906;50.812;7.132;2022-12-29T01:30:30;0.90;;;0.80;;
4106;SDS011;21906;50.812;7.132;2022-12-29T01:32:55;0.80;;;0.60;;
4106;SDS011;21906;50.812;7.132;2022-12-29T01:35:21;0.90;;;0.80;;
4106;SDS011;21906;50.812;7.132;2022-12-29T01:37:47;0.70;;;0.60;;
4106;SDS011;21906;50.812;7.132;2022-12-29T01:40:12;0.90;;;0.70;;
4106;SDS011;21906;50.812;7.132;2022-12-29T01:42:38;0.90;;;0.70;;
4106;SDS011;21906;50.812;7.132;2022-12-29T01:45:13;0.80;;;0.70;;
4106;SDS011;21906;50.812;7.132;2022-12-29T01:47:42;0.80;;;0.73;;
4106;SDS011;21906;50.812;7.132;2022-12-29T01:50:10;1.07;;;0.80;;
4106;SDS011;21906;50.812;7.132;2022-12-29T01:52:42;1.30;;;0.80;;
4106;SDS011;21906;50.812;7.132;2022-12-29T01:55:15;1.53;;;0.80;;
4106;SDS011;21906;50.812;7.132;2022-12-29T01:57:42;0.90;;;0.80;;
4106;SDS011;21906;50.812;7.132;2022-12-29T02:00:12;1.00;;;0.80;;
4106;SDS011;21906;50.812;7.132;2022-12-29T02:02:38;1.33;;;0.80;;
4106;SDS011;21906;50.812;7.132;2022-12-29T02:08:07;1.00;;;0.90;;
4106;SDS011;21906;50.812;7.132;2022-12-29T02:10:34;0.93;;;0.83;;
4106;SDS011;21906;50.812;7.132;2022-12-29T02:13:01;1.00;;;0.90;;
4106;SDS011;21906;50.812;7.132;2022-12-29T02:18:21;1.00;;;0.80;;
4106;SDS011;21906;50.812;7.132;2022-12-29T02:31:41;1.20;;;1.10;;
4106;SDS011;21906;50.812;7.132;2022-12-29T02:39:50;0.93;;;0.83;;
4106;SDS011;21906;50.812;7.132;2022-12-29T02:45:21;1.60;;;0.80;;
4106;SDS011;21906;50.812;7.132;2022-12-29T02:50:38;1.00;;;0.73;;
4106;SDS011;21906;50.812;7.132;2022-12-29T02:53:09;0.80;;;0.77;;
4106;SDS011;21906;50.812;7.132;2022-12-29T02:55:38;1.60;;;1.00;;
4106;SDS011;21906;50.812;7.132;2022-12-29T02:58:13;1.27;;;0.90;;
4106;SDS011;21906;50.812;7.132;2022-12-29T03:07:08;0.90;;;0.77;;
4106;SDS011;21906;50.812;7.132;2022-12-29T03:09:47;0.90;;;0.80;;
4106;SDS011;21906;50.812;7.132;2022-12-29T03:15:28;1.07;;;0.80;;
4106;SDS011;21906;50.812;7.132;2022-12-29T03:23:39;1.10;;;1.00;;
4106;SDS011;21906;50.812;7.132;2022-12-29T03:26:08;1.00;;;0.90;;
4106;SDS011;21906;50.812;7.132;2022-12-29T03:28:38;0.87;;;0.83;;
4106;SDS011;21906;50.812;7.132;2022-12-29T03:31:08;1.00;;;0.90;;
4106;SDS011;21906;50.812;7.132;2022-12-29T03:33:35;1.30;;;1.00;;
4106;SDS011;21906;50.812;7.132;2022-12-29T03:36:04;1.17;;;1.07;;
4106;SDS011;21906;50.812;7.132;2022-12-29T03:38:35;1.00;;;0.90;;
4106;SDS011;21906;50.812;7.132;2022-12-29T03:41:09;1.10;;;1.00;;
4106;SDS011;21906;50.812;7.132;2022-12-29T03:43:38;1.10;;;1.00;;
4106;SDS011;21906;50.812;7.132;2022-12-29T03:46:03;1.10;;;1.00;;
4106;SDS011;21906;50.812;7.132;2022-12-29T03:48:29;1.03;;;0.93;;
4106;SDS011;21906;50.812;7.132;2022-12-29T03:50:55;1.10;;;1.00;;
4106;SDS011;21906;50.812;7.132;2022-12-29T03:53:20;1.00;;;0.90;;
4106;SDS011;21906;50.812;7.132;2022-12-29T03:55:46;1.10;;;0.90;;
4106;SDS011;21906;50.812;7.132;2022-12-29T03:58:12;1.20;;;1.10;;
4106;SDS011;21906;50.812;7.132;2022-12-29T04:00:38;1.10;;;1.00;;
4106;SDS011;21906;50.812;7.132;2022-12-29T04:03:04;1.17;;;1.07;;
4106;SDS011;21906;50.812;7.132;2022-12-29T04:05:29;1.20;;;1.10;;
4106;SDS011;21906;50.812;7.132;2022-12-29T04:07:56;1.00;;;0.90;;
4106;SDS011;21906;50.812;7.132;2022-12-29T04:10:21;1.10;;;0.93;;
4106;SDS011;21906;50.812;7.132;2022-12-29T04:12:47;1.10;;;0.90;;
4106;SDS011;21906;50.812;7.132;2022-12-29T04:15:13;1.80;;;1.20;;
4106;SDS011;21906;50.812;7.132;2022-12-29T04:17:39;2.03;;;0.87;;
4106;SDS011;21906;50.812;7.132;2022-12-29T04:20:04;1.40;;;1.20;;
4106;SDS011;21906;50.812;7.132;2022-12-29T04:22:49;1.20;;;1.10;;
4106;SDS011;21906;50.812;7.132;2022-12-29T04:25:21;0.90;;;0.80;;
4106;SDS011;21906;50.812;7.132;2022-12-29T04:27:47;1.13;;;1.00;;
4106;SDS011;21906;50.812;7.132;2022-12-29T04:30:13;1.20;;;0.80;;
4106;SDS011;21906;50.812;7.132;2022-12-29T04:32:38;0.90;;;0.80;;
4106;SDS011;21906;50.812;7.132;2022-12-29T04:35:04;0.90;;;0.80;;
4106;SDS011;21906;50.812;7.132;2022-12-29T04:37:30;1.10;;;1.00;;
4106;SDS011;21906;50.812;7.132;2022-12-29T04:39:56;1.00;;;0.90;;
4106;SDS011;21906;50.812;7.132;2022-12-29T04:42:21;1.00;;;0.90;;
4106;SDS011;21906;50.812;7.132;2022-12-29T04:44:47;1.10;;;1.00;;
4106;SDS011;21906;50.812;7.132;2022-12-29T04:47:13;0.80;;;0.70;;
4106;SDS011;21906;50.812;7.132;2022-12-29T04:49:38;1.00;;;0.90;;
4106;SDS011;21906;50.812;7.132;2022-12-29T04:52:04;1.80;;;0.90;;
4106;SDS011;21906;50.812;7.132;2022-12-29T04:54:30;1.00;;;0.90;;
4106;SDS011;21906;50.812;7.132;2022-12-29T04:56:55;1.20;;;0.90;;
4106;SDS011;21906;50.812;7.132;2022-12-29T04:59:21;1.00;;;0.90;;
4106;SDS011;21906;50.812;7.132;2022-12-29T05:01:47;0.80;;;0.70;;
4106;SDS011;21906;50.812;7.132;2022-12-29T05:04:12;0.90;;;0.70;;
4106;SDS011;21906;50.812;7.132;2022-12-29T05:06:38;0.87;;;0.73;;
4106;SDS011;21906;50.812;7.132;2022-12-29T05:09:04;0.90;;;0.70;;
4106;SDS011;21906;50.812;7.132;2022-12-29T05:11:29;0.90;;;0.70;;
4106;SDS011;21906;50.812;7.132;2022-12-29T05:13:55;1.47;;;0.80;;
4106;SDS011;21906;50.812;7.132;2022-12-29T05:16:20;0.80;;;0.70;;
4106;SDS011;21906;50.812;7.132;2022-12-29T05:18:46;1.20;;;0.90;;
4106;SDS011;21906;50.812;7.132;2022-12-29T05:21:11;1.07;;;0.83;;
4106;SDS011;21906;50.812;7.132;2022-12-29T05:23:37;0.80;;;0.67;;
4106;SDS011;21906;50.812;7.132;2022-12-29T05:26:03;1.77;;;0.80;;
4106;SDS011;21906;50.812;7.132;2022-12-29T05:28:28;1.47;;;0.70;;
4106;SDS011;21906;50.812;7.132;2022-12-29T05:30:54;1.00;;;0.90;;
4106;SDS011;21906;50.812;7.132;2022-12-29T05:33:20;1.27;;;0.60;;
4106;SDS011;21906;50.812;7.132;2022-12-29T05:35:45;1.00;;;0.70;;
4106;SDS011;21906;50.812;7.132;2022-12-29T05:38:11;0.90;;;0.80;;
4106;SDS011;21906;50.812;7.132;2022-12-29T05:40:37;1.13;;;0.90;;
4106;SDS011;21906;50.812;7.132;2022-12-29T05:43:03;2.60;;;0.77;;
4106;SDS011;21906;50.812;7.132;2022-12-29T05:45:29;0.90;;;0.80;;
4106;SDS011;21906;50.812;7.132;2022-12-29T05:47:55;1.10;;;0.80;;
4106;SDS011;21906;50.812;7.132;2022-12-29T05:50:20;0.90;;;0.70;;
4106;SDS011;21906;50.812;7.132;2022-12-29T05:52:46;0.80;;;0.70;;
4106;SDS011;21906;50.812;7.132;2022-12-29T05:55:12;1.03;;;0.93;;
4106;SDS011;21906;50.812;7.132;2022-12-29T05:57:37;0.90;;;0.70;;
4106;SDS011;21906;50.812;7.132;2022-12-29T06:00:04;1.53;;;0.80;;
4106;SDS011;21906;50.812;7.132;2022-12-29T06:02:30;1.00;;;0.80;;
4106;SDS011;21906;50.812;7.132;2022-12-29T06:04:56;1.20;;;0.90;;
4106;SDS011;21906;50.812;7.132;2022-12-29T06:07:21;1.40;;;1.10;;
4106;SDS011;21906;50.812;7.132;2022-12-29T06:09:47;1.00;;;0.90;;
4106;SDS011;21906;50.812;7.132;2022-12-29T06:12:13;1.10;;;1.00;;
4106;SDS011;21906;50.812;7.132;2022-12-29T06:14:38;0.90;;;0.80;;
4106;SDS011;21906;50.812;7.132;2022-12-29T06:17:04;1.40;;;0.90;;
4106;SDS011;21906;50.812;7.132;2022-12-29T06:19:29;1.27;;;1.10;;
4106;SDS011;21906;50.812;7.132;2022-12-29T06:21:55;1.77;;;1.03;;
4106;SDS011;21906;50.812;7.132;2022-12-29T06:24:21;1.10;;;1.00;;
4106;SDS011;21906;50.812;7.132;2022-12-29T06:26:46;1.33;;;1.10;;
4106;SDS011;21906;50.812;7.132;2022-12-29T06:29:12;1.30;;;1.00;;
4106;SDS011;21906;50.812;7.132;2022-12-29T06:31:41;1.53;;;1.10;;
4106;SDS011;21906;50.812;7.132;2022-12-29T06:34:08;2.80;;;0.97;;
4106;SDS011;21906;50.812;7.132;2022-12-29T06:36:34;1.40;;;1.30;;
4106;SDS011;21906;50.812;7.132;2022-12-29T06:38:59;2.13;;;1.20;;
4106;SDS011;21906;50.812;7.132;2022-12-29T06:41:25;1.00;;;0.90;;
4106;SDS011;21906;50.812;7.132;2022-12-29T06:43:51;1.50;;;1.40;;
4106;SDS011;21906;50.812;7.132;2022-12-29T06:46:16;1.93;;;1.10;;
4106;SDS011;21906;50.812;7.132;2022-12-29T06:48:42;1.27;;;1.17;;
4106;SDS011;21906;50.812;7.132;2022-12-29T06:51:08;2.73;;;1.30;;
4106;SDS011;21906;50.812;7.132;2022-12-29T06:53:34;1.37;;;1.27;;
4106;SDS011;21906;50.812;7.132;2022-12-29T07:01:56;2.20;;;0.80;;
4106;SDS011;21906;50.812;7.132;2022-12-29T07:04:22;1.00;;;0.80;;
4106;SDS011;21906;50.812;7.132;2022-12-29T07:06:48;1.70;;;0.90;;
4106;SDS011;21906;50.812;7.132;2022-12-29T07:09:13;1.77;;;0.70;;
4106;SDS011;21906;50.812;7.132;2022-12-29T07:11:39;0.90;;;0.60;;
4106;SDS011;21906;50.812;7.132;2022-12-29T07:14:05;1.27;;;0.63;;
4106;SDS011;21906;50.812;7.132;2022-12-29T07:16:31;0.80;;;0.60;;
4106;SDS011;21906;50.812;7.132;2022-12-29T07:18:57;0.90;;;0.60;;
4106;SDS011;21906;50.812;7.132;2022-12-29T07:21:24;1.80;;;0.60;;
4106;SDS011;21906;50.812;7.132;2022-12-29T07:23:50;0.90;;;0.60;;
4106;SDS011;21906;50.812;7.132;2022-12-29T07:26:15;0.80;;;0.60;;
4106;SDS011;21906;50.812;7.132;2022-12-29T07:28:44;0.80;;;0.60;;
4106;SDS011;21906;50.812;7.132;2022-12-29T07:31:14;1.03;;;0.60;;
4106;SDS011;21906;50.812;7.132;2022-12-29T07:33:42;0.70;;;0.50;;
4106;SDS011;21906;50.812;7.132;2022-12-29T07:36:11;2.07;;;0.80;;
4106;SDS011;21906;50.812;7.132;2022-12-29T07:38:37;2.27;;;0.70;;
4106;SDS011;21906;50.812;7.132;2022-12-29T07:41:03;0.93;;;0.67;;
4106;SDS011;21906;50.812;7.132;2022-12-29T07:43:29;1.50;;;1.00;;
4106;SDS011;21906;50.812;7.132;2022-12-29T07:45:54;0.83;;;0.60;;
4106;SDS011;21906;50.812;7.132;2022-12-29T07:48:20;1.73;;;0.80;;
4106;SDS011;21906;50.812;7.132;2022-12-29T07:50:46;0.90;;;0.80;;
4106;SDS011;21906;50.812;7.132;2022-12-29T07:53:12;2.23;;;0.87;;
4106;SDS011;21906;50.812;7.132;2022-12-29T07:55:37;1.20;;;0.70;;
4106;SDS011;21906;50.812;7.132;2022-12-29T07:58:03;1.10;;;0.80;;
4106;SDS011;21906;50.812;7.132;2022-12-29T08:00:29;1.67;;;0.90;;
4106;SDS011;21906;50.812;7.132;2022-12-29T08:02:55;1.27;;;0.90;;
4106;SDS011;21906;50.812;7.132;2022-12-29T08:05:20;1.60;;;0.80;;
4106;SDS011;21906;50.812;7.132;2022-12-29T08:07:46;0.87;;;0.70;;
4106;SDS011;21906;50.812;7.132;2022-12-29T08:10:13;2.30;;;0.80;;
4106;SDS011;21906;50.812;7.132;2022-12-29T08:12:39;1.10;;;0.80;;
4106;SDS011;21906;50.812;7.132;2022-12-29T08:15:06;2.20;;;0.77;;
4106;SDS011;21906;50.812;7.132;2022-12-29T08:17:33;1.20;;;0.80;;
4106;SDS011;21906;50.812;7.132;2022-12-29T08:19:59;1.40;;;0.70;;
4106;SDS011;21906;50.812;7.132;2022-12-29T08:22:25;1.73;;;0.90;;
4106;SDS011;21906;50.812;7.132;2022-12-29T08:24:50;1.50;;;0.87;;
4106;SDS011;21906;50.812;7.132;2022-12-29T08:27:16;2.20;;;1.00;;
4106;SDS011;21906;50.812;7.132;2022-12-29T08:29:42;1.23;;;0.90;;
4106;SDS011;21906;50.812;7.132;2022-12-29T08:32:08;1.20;;;0.90;;
4106;SDS011;21906;50.812;7.132;2022-12-29T08:34:33;2.87;;;1.60;;
4106;SDS011;21906;50.812;7.132;2022-12-29T08:36:59;1.60;;;0.87;;
4106;SDS011;21906;50.812;7.132;2022-12-29T08:39:24;1.47;;;1.13;;
4106;SDS011;21906;50.812;7.132;2022-12-29T08:41:50;1.20;;;1.00;;
4106;SDS011;21906;50.812;7.132;2022-12-29T08:44:16;1.60;;;0.90;;
4106;SDS011;21906;50.812;7.132;2022-12-29T08:46:41;1.40;;;1.00;;
4106;SDS011;21906;50.812;7.132;2022-12-29T08:49:07;1.03;;;0.90;;
4106;SDS011;21906;50.812;7.132;2022-12-29T08:51:33;1.03;;;0.80;;
4106;SDS011;21906;50.812;7.132;2022-12-29T08:53:59;1.63;;;1.10;;
4106;SDS011;21906;50.812;7.132;2022-12-29T08:56:25;1.37;;;0.93;;
4106;SDS011;21906;50.812;7.132;2022-12-29T08:58:51;1.47;;;0.90;;
4106;SDS011;21906;50.812;7.132;2022-12-29T09:01:17;1.57;;;0.90;;
4106;SDS011;21906;50.812;7.132;2022-12-29T09:03:44;1.80;;;1.17;;
4106;SDS011;21906;50.812;7.132;2022-12-29T09:06:10;1.60;;;1.07;;
4106;SDS011;21906;50.812;7.132;2022-12-29T09:08:36;1.53;;;0.90;;
4106;SDS011;21906;50.812;7.132;2022-12-29T09:11:35;1.73;;;1.20;;
4106;SDS011;21906;50.812;7.132;2022-12-29T09:13:54;1.20;;;1.10;;
4106;SDS011;21906;50.812;7.132;2022-12-29T09:16:20;1.77;;;1.23;;
4106;SDS011;21906;50.812;7.132;2022-12-29T09:18:50;1.20;;;0.80;;
4106;SDS011;21906;50.812;7.132;2022-12-29T09:21:16;1.30;;;0.90;;
4106;SDS011;21906;50.812;7.132;2022-12-29T09:23:42;1.47;;;1.30;;
4106;SDS011;21906;50.812;7.132;2022-12-29T09:26:07;1.70;;;1.10;;
4106;SDS011;21906;50.812;7.132;2022-12-29T09:28:34;2.43;;;1.10;;
4106;SDS011;21906;50.812;7.132;2022-12-29T09:31:00;0.90;;;0.73;;
4106;SDS011;21906;50.812;7.132;2022-12-29T09:33:26;1.80;;;1.00;;
4106;SDS011;21906;50.812;7.132;2022-12-29T09:35:56;2.10;;;1.07;;
4106;SDS011;21906;50.812;7.132;2022-12-29T09:38:23;5.40;;;1.77;;
4106;SDS011;21906;50.812;7.132;2022-12-29T09:40:54;3.33;;;1.03;;
4106;SDS011;21906;50.812;7.132;2022-12-29T09:43:44;3.50;;;1.03;;
4106;SDS011;21906;50.812;7.132;2022-12-29T09:46:34;2.87;;;1.10;;
4106;SDS011;21906;50.812;7.132;2022-12-29T09:49:09;1.13;;;0.83;;
4106;SDS011;21906;50.812;7.132;2022-12-29T09:51:55;1.23;;;1.10;;
4106;SDS011;21906;50.812;7.132;2022-12-29T09:57:38;3.10;;;0.90;;
4106;SDS011;21906;50.812;7.132;2022-12-29T10:00:16;1.67;;;1.20;;
4106;SDS011;21906;50.812;7.132;2022-12-29T10:02:46;4.63;;;1.13;;
4106;SDS011;21906;50.812;7.132;2022-12-29T10:10:31;3.70;;;1.00;;
4106;SDS011;21906;50.812;7.132;2022-12-29T10:13:08;3.53;;;1.33;;
4106;SDS011;21906;50.812;7.132;2022-12-29T10:15:54;4.93;;;1.20;;
4106;SDS011;21906;50.812;7.132;2022-12-29T10:18:48;2.10;;;1.20;;
4106;SDS011;21906;50.812;7.132;2022-12-29T10:24:09;3.73;;;1.13;;
4106;SDS011;21906;50.812;7.132;2022-12-29T10:26:39;2.67;;;1.07;;
4106;SDS011;21906;50.812;7.132;2022-12-29T10:29:11;1.60;;;1.00;;
4106;SDS011;21906;50.812;7.132;2022-12-29T10:31:46;1.20;;;1.00;;
4106;SDS011;21906;50.812;7.132;2022-12-29T10:34:16;1.70;;;1.20;;
4106;SDS011;21906;50.812;7.132;2022-12-29T10:36:53;1.40;;;1.00;;
4106;SDS011;21906;50.812;7.132;2022-12-29T10:39:28;1.27;;;0.90;;
4106;SDS011;21906;50.812;7.132;2022-12-29T10:44:49;1.67;;;1.00;;
4106;SDS011;21906;50.812;7.132;2022-12-29T10:47:16;2.83;;;1.53;;
4106;SDS011;21906;50.812;7.132;2022-12-29T10:49:46;3.67;;;1.20;;
4106;SDS011;21906;50.812;7.132;2022-12-29T10:52:13;1.40;;;1.00;;
4106;SDS011;21906;50.812;7.132;2022-12-29T10:54:51;2.17;;;1.20;;
4106;SDS011;21906;50.812;7.132;2022-12-29T11:00:10;3.63;;;1.17;;
4106;SDS011;21906;50.812;7.132;2022-12-29T11:05:56;1.40;;;1.10;;
4106;SDS011;21906;50.812;7.132;2022-12-29T11:11:34;2.70;;;1.40;;
4106;SDS011;21906;50.812;7.132;2022-12-29T11:16:40;3.20;;;1.20;;
4106;SDS011;21906;50.812;7.132;2022-12-29T11:19:19;4.27;;;1.20;;
4106;SDS011;21906;50.812;7.132;2022-12-29T11:21:52;3.67;;;1.33;;
4106;SDS011;21906;50.812;7.132;2022-12-29T11:24:25;4.23;;;1.00;;
4106;SDS011;21906;50.812;7.132;2022-12-29T11:26:53;4.00;;;1.20;;
4106;SDS011;21906;50.812;7.132;2022-12-29T11:29:40;2.30;;;1.03;;
4106;SDS011;21906;50.812;7.132;2022-12-29T11:32:20;1.73;;;1.10;;
4106;SDS011;21906;50.812;7.132;2022-12-29T11:34:50;1.80;;;1.20;;
4106;SDS011;21906;50.812;7.132;2022-12-29T11:37:17;2.90;;;1.20;;
4106;SDS011;21906;50.812;7.132;2022-12-29T11:39:55;1.90;;;1.30;;
4106;SDS011;21906;50.812;7.132;2022-12-29T11:45:15;3.00;;;1.00;;
4106;SDS011;21906;50.812;7.132;2022-12-29T11:47:43;3.70;;;1.30;;
4106;SDS011;21906;50.812;7.132;2022-12-29T11:50:16;4.23;;;1.30;;
4106;SDS011;21906;50.812;7.132;2022-12-29T11:52:57;2.17;;;1.10;;
4106;SDS011;21906;50.812;7.132;2022-12-29T11:55:25;1.50;;;1.10;;
4106;SDS011;21906;50.812;7.132;2022-12-29T11:57:51;2.37;;;1.23;;
4106;SDS011;21906;50.812;7.132;2022-12-29T12:00:23;4.90;;;1.40;;
4106;SDS011;21906;50.812;7.132;2022-12-29T12:02:51;2.27;;;1.27;;
4106;SDS011;21906;50.812;7.132;2022-12-29T12:07:57;3.37;;;1.20;;
4106;SDS011;21906;50.812;7.132;2022-12-29T12:10:48;2.60;;;1.07;;
4106;SDS011;21906;50.812;7.132;2022-12-29T12:13:26;1.30;;;1.10;;
4106;SDS011;21906;50.812;7.132;2022-12-29T12:16:00;2.03;;;1.07;;
4106;SDS011;21906;50.812;7.132;2022-12-29T12:18:37;1.53;;;1.00;;
4106;SDS011;21906;50.812;7.132;2022-12-29T12:21:15;4.30;;;1.43;;
4106;SDS011;21906;50.812;7.132;2022-12-29T12:26:49;1.73;;;1.20;;
4106;SDS011;21906;50.812;7.132;2022-12-29T12:32:20;2.33;;;1.23;;
4106;SDS011;21906;50.812;7.132;2022-12-29T12:35:17;2.27;;;1.20;;
4106;SDS011;21906;50.812;7.132;2022-12-29T12:43:41;3.10;;;1.17;;
4106;SDS011;21906;50.812;7.132;2022-12-29T13:00:16;2.13;;;1.17;;
4106;SDS011;21906;50.812;7.132;2022-12-29T13:05:38;3.10;;;1.00;;
4106;SDS011;21906;50.812;7.132;2022-12-29T13:19:37;2.27;;;1.47;;
4106;SDS011;21906;50.812;7.132;2022-12-29T13:22:25;2.00;;;1.20;;
4106;SDS011;21906;50.812;7.132;2022-12-29T13:30:22;3.37;;;1.10;;
4106;SDS011;21906;50.812;7.132;2022-12-29T13:35:44;4.00;;;1.10;;
4106;SDS011;21906;50.812;7.132;2022-12-29T13:38:12;2.40;;;1.60;;
4106;SDS011;21906;50.812;7.132;2022-12-29T13:40:45;3.80;;;1.30;;
4106;SDS011;21906;50.812;7.132;2022-12-29T13:43:13;2.03;;;1.30;;
4106;SDS011;21906;50.812;7.132;2022-12-29T13:45:42;2.17;;;1.30;;
4106;SDS011;21906;50.812;7.132;2022-12-29T13:50:52;4.50;;;1.63;;
4106;SDS011;21906;50.812;7.132;2022-12-29T14:01:39;2.37;;;1.10;;
4106;SDS011;21906;50.812;7.132;2022-12-29T14:04:17;3.10;;;1.30;;
4106;SDS011;21906;50.812;7.132;2022-12-29T14:07:04;3.23;;;1.10;;
4106;SDS011;21906;50.812;7.132;2022-12-29T14:09:42;2.80;;;1.20;;
4106;SDS011;21906;50.812;7.132;2022-12-29T14:17:30;3.43;;;1.30;;
4106;SDS011;21906;50.812;7.132;2022-12-29T14:19:55;3.53;;;1.20;;
4106;SDS011;21906;50.812;7.132;2022-12-29T14:22:25;2.83;;;1.40;;
4106;SDS011;21906;50.812;7.132;2022-12-29T14:24:52;3.23;;;1.20;;
4106;SDS011;21906;50.812;7.132;2022-12-29T14:29:50;3.27;;;1.23;;
4106;SDS011;21906;50.812;7.132;2022-12-29T14:34:54;2.87;;;1.10;;
4106;SDS011;21906;50.812;7.132;2022-12-29T14:42:44;3.93;;;1.73;;
4106;SDS011;21906;50.812;7.132;2022-12-29T14:47:44;3.37;;;1.50;;
4106;SDS011;21906;50.812;7.132;2022-12-29T14:50:13;2.83;;;1.20;;
4106;SDS011;21906;50.812;7.132;2022-12-29T14:53:40;4.70;;;1.37;;
4106;SDS011;21906;50.812;7.132;2022-12-29T14:56:10;2.93;;;1.30;;
4106;SDS011;21906;50.812;7.132;2022-12-29T14:58:42;3.57;;;2.00;;
4106;SDS011;21906;50.812;7.132;2022-12-29T15:03:58;2.33;;;1.47;;
4106;SDS011;21906;50.812;7.132;2022-12-29T15:06:30;3.17;;;1.37;;
4106;SDS011;21906;50.812;7.132;2022-12-29T15:09:41;4.23;;;1.27;;
4106;SDS011;21906;50.812;7.132;2022-12-29T15:11:56;4.30;;;1.70;;
4106;SDS011;21906;50.812;7.132;2022-12-29T15:17:09;6.20;;;1.87;;
4106;SDS011;21906;50.812;7.132;2022-12-29T15:19:46;3.50;;;1.50;;
4106;SDS011;21906;50.812;7.132;2022-12-29T15:22:12;2.63;;;1.37;;
4106;SDS011;21906;50.812;7.132;2022-12-29T15:24:41;3.13;;;1.23;;
4106;SDS011;21906;50.812;7.132;2022-12-29T15:27:10;4.13;;;1.50;;
4106;SDS011;21906;50.812;7.132;2022-12-29T15:29:41;2.43;;;1.20;;
4106;SDS011;21906;50.812;7.132;2022-12-29T15:34:46;2.60;;;1.23;;
4106;SDS011;21906;50.812;7.132;2022-12-29T15:37:21;2.20;;;1.17;;
4106;SDS011;21906;50.812;7.132;2022-12-29T15:39:50;3.17;;;1.10;;
4106;SDS011;21906;50.812;7.132;2022-12-29T15:45:05;3.77;;;1.10;;
4106;SDS011;21906;50.812;7.132;2022-12-29T15:47:34;2.40;;;1.13;;
4106;SDS011;21906;50.812;7.132;2022-12-29T15:50:09;2.60;;;1.13;;
4106;SDS011;21906;50.812;7.132;2022-12-29T15:52:44;1.50;;;1.40;;
4106;SDS011;21906;50.812;7.132;2022-12-29T15:55:21;3.60;;;1.30;;
4106;SDS011;21906;50.812;7.132;2022-12-29T15:58:00;1.50;;;1.10;;
4106;SDS011;21906;50.812;7.132;2022-12-29T16:00:35;2.43;;;1.30;;
4106;SDS011;21906;50.812;7.132;2022-12-29T16:03:02;4.20;;;1.23;;
4106;SDS011;21906;50.812;7.132;2022-12-29T16:05:34;2.07;;;1.40;;
4106;SDS011;21906;50.812;7.132;2022-12-29T16:08:02;2.43;;;1.10;;
4106;SDS011;21906;50.812;7.132;2022-12-29T16:10:46;5.33;;;1.40;;
4106;SDS011;21906;50.812;7.132;2022-12-29T16:15:44;1.60;;;1.50;;
4106;SDS011;21906;50.812;7.132;2022-12-29T16:18:14;4.83;;;1.73;;
4106;SDS011;21906;50.812;7.132;2022-12-29T16:20:57;2.33;;;1.77;;
4106;SDS011;21906;50.812;7.132;2022-12-29T16:23:25;2.80;;;2.00;;
4106;SDS011;21906;50.812;7.132;2022-12-29T16:25:52;3.13;;;2.30;;
4106;SDS011;21906;50.812;7.132;2022-12-29T16:28:21;3.97;;;2.17;;
4106;SDS011;21906;50.812;7.132;2022-12-29T16:31:05;5.40;;;2.30;;
4106;SDS011;21906;50.812;7.132;2022-12-29T16:36:02;2.70;;;2.40;;
4106;SDS011;21906;50.812;7.132;2022-12-29T16:38:51;3.50;;;2.30;;
4106;SDS011;21906;50.812;7.132;2022-12-29T16:41:29;4.20;;;2.33;;
4106;SDS011;21906;50.812;7.132;2022-12-29T16:44:12;2.60;;;2.00;;
4106;SDS011;21906;50.812;7.132;2022-12-29T16:46:44;3.20;;;2.37;;
4106;SDS011;21906;50.812;7.132;2022-12-29T16:49:27;3.83;;;2.13;;
4106;SDS011;21906;50.812;7.132;2022-12-29T16:51:54;2.70;;;2.20;;
4106;SDS011;21906;50.812;7.132;2022-12-29T16:54:22;2.40;;;2.20;;
4106;SDS011;21906;50.812;7.132;2022-12-29T16:56:49;4.23;;;2.30;;
4106;SDS011;21906;50.812;7.132;2022-12-29T17:01:53;7.10;;;2.73;;
4106;SDS011;21906;50.812;7.132;2022-12-29T17:04:20;6.67;;;2.80;;
4106;SDS011;21906;50.812;7.132;2022-12-29T17:06:45;4.50;;;2.60;;
4106;SDS011;21906;50.812;7.132;2022-12-29T17:09:21;3.93;;;2.80;;
4106;SDS011;21906;50.812;7.132;2022-12-29T17:11:50;2.63;;;2.27;;
4106;SDS011;21906;50.812;7.132;2022-12-29T17:19:57;4.50;;;2.20;;
4106;SDS011;21906;50.812;7.132;2022-12-29T17:22:39;3.67;;;2.93;;
4106;SDS011;21906;50.812;7.132;2022-12-29T17:25:05;4.67;;;2.83;;
4106;SDS011;21906;50.812;7.132;2022-12-29T17:27:37;4.13;;;2.77;;
4106;SDS011;21906;50.812;7.132;2022-12-29T17:30:14;3.40;;;2.50;;
4106;SDS011;21906;50.812;7.132;2022-12-29T17:32:42;6.73;;;2.70;;
4106;SDS011;21906;50.812;7.132;2022-12-29T17:35:14;4.50;;;2.37;;
4106;SDS011;21906;50.812;7.132;2022-12-29T17:37:40;5.87;;;2.80;;
4106;SDS011;21906;50.812;7.132;2022-12-29T17:40:07;4.43;;;2.70;;
4106;SDS011;21906;50.812;7.132;2022-12-29T17:42:40;5.57;;;2.80;;
4106;SDS011;21906;50.812;7.132;2022-12-29T17:45:12;3.87;;;2.80;;
4106;SDS011;21906;50.812;7.132;2022-12-29T17:47:39;9.07;;;3.10;;
4106;SDS011;21906;50.812;7.132;2022-12-29T17:50:08;4.03;;;2.23;;
4106;SDS011;21906;50.812;7.132;2022-12-29T17:52:40;7.37;;;2.47;;
4106;SDS011;21906;50.812;7.132;2022-12-29T17:55:08;4.30;;;2.27;;
4106;SDS011;21906;50.812;7.132;2022-12-29T17:57:40;7.80;;;2.73;;
4106;SDS011;21906;50.812;7.132;2022-12-29T18:00:05;4.13;;;2.40;;
4106;SDS011;21906;50.812;7.132;2022-12-29T18:02:38;4.57;;;2.57;;
4106;SDS011;21906;50.812;7.132;2022-12-29T18:05:04;6.23;;;2.40;;
4106;SDS011;21906;50.812;7.132;2022-12-29T18:07:37;5.83;;;2.40;;
4106;SDS011;21906;50.812;7.132;2022-12-29T18:10:03;7.00;;;2.40;;
4106;SDS011;21906;50.812;7.132;2022-12-29T18:14:58;8.77;;;2.50;;
4106;SDS011;21906;50.812;7.132;2022-12-29T18:17:24;4.63;;;2.50;;
4106;SDS011;21906;50.812;7.132;2022-12-29T18:19:50;4.17;;;2.27;;
4106;SDS011;21906;50.812;7.132;2022-12-29T18:22:18;4.30;;;2.70;;
4106;SDS011;21906;50.812;7.132;2022-12-29T18:24:45;5.50;;;2.73;;